Time;durP1;ratioP1;P1;durP2;ratioP2;P2;SDS_P1;SDS_P2;PMS_P1;PMS_P2;Temp;Humidity;BMP_temperature;BMP_pressure;BME280_temperature;BME280_humidity;BME280_pressure;Samples;Min_cycle;Max_cycle;Signal;HPM_P1;HPM_P2
2023/10/09 00:00:50;;;;;;;6.30;3.00;;;;;;;3.66;100.00;98094.16;110178;1241;60511;-57
2023/10/09 00:03:46;;;;;;;3.40;2.50;;;;;;;3.68;100.00;98097.69;110153;1245;72153;-60
2023/10/09 00:06:23;;;;;;;3.90;2.10;;;;;;;3.70;100.00;98093.15;110165;1244;69231;-59
2023/10/09 00:08:57;;;;;;;3.70;2.40;;;;;;;3.70;100.00;98086.27;110350;1245;69211;-60
2023/10/09 00:11:30;;;;;;;4.80;2.60;;;;;;;3.66;100.00;98084.31;110218;1244;60472;-59
2023/10/09 00:14:05;;;;;;;3.70;2.30;;;;;;;3.65;100.00;98084.71;110107;1245;60520;-58
2023/10/09 00:16:47;;;;;;;5.30;2.60;;;;;;;3.62;100.00;98082.75;110151;1244;72084;-59
2023/10/09 00:19:20;;;;;;;3.80;2.70;;;;;;;3.63;100.00;98089.94;110209;1245;68259;-58
2023/10/09 00:21:55;;;;;;;3.10;2.30;;;;;;;3.64;100.00;98090.75;110209;1245;68251;-58
2023/10/09 00:24:26;;;;;;;5.60;2.20;;;;;;;3.64;100.00;98090.59;110173;1242;60493;-59
2023/10/09 00:27:11;;;;;;;4.70;2.20;;;;;;;3.63;100.00;98092.86;110214;1244;60610;-60
2023/10/09 00:29:45;;;;;;;3.80;2.50;;;;;;;3.59;100.00;98097.48;110197;1241;71807;-60
2023/10/09 00:32:22;;;;;;;3.00;2.10;;;;;;;3.59;100.00;98098.02;110186;1244;69238;-58
2023/10/09 00:34:59;;;;;;;3.10;2.30;;;;;;;3.55;100.00;98089.67;110088;1242;69300;-58
2023/10/09 00:37:35;;;;;;;4.40;2.20;;;;;;;3.51;100.00;98083.27;110104;1244;60503;-58
2023/10/09 00:40:20;;;;;;;3.50;2.10;;;;;;;3.48;100.00;98081.81;110151;1244;60505;-57
2023/10/09 00:42:55;;;;;;;3.00;1.70;;;;;;;3.44;100.00;98080.25;110138;1245;72246;-57
2023/10/09 00:45:32;;;;;;;4.10;1.80;;;;;;;3.38;100.00;98084.23;110123;1241;69141;-57
2023/10/09 00:48:06;;;;;;;3.00;1.80;;;;;;;3.32;100.00;98087.00;110157;1241;69324;-57
2023/10/09 00:50:46;;;;;;;2.60;1.70;;;;;;;3.25;100.00;98090.84;110122;1244;60552;-58
2023/10/09 00:53:30;;;;;;;2.70;2.00;;;;;;;3.19;100.00;98092.10;110118;1245;60489;-58
2023/10/09 00:56:18;;;;;;;2.10;1.60;;;;;;;3.13;100.00;98096.42;110158;1244;73149;-59
2023/10/09 00:58:55;;;;;;;2.40;1.60;;;;;;;3.03;100.00;98091.89;110121;1244;69169;-63
2023/10/09 01:04:29;;;;;;;3.10;1.80;;;;;;;2.82;100.00;98091.39;110062;1245;60509;-58
2023/10/09 01:07:15;;;;;;;2.60;1.60;;;;;;;2.71;100.00;98090.48;110156;1242;60496;-58
2023/10/09 01:09:51;;;;;;;2.80;1.70;;;;;;;2.61;100.00;98094.08;110118;1244;72177;-60
2023/10/09 01:12:22;;;;;;;2.30;1.70;;;;;;;2.51;100.00;98089.69;110119;1244;69439;-58
2023/10/09 01:14:59;;;;;;;2.60;1.70;;;;;;;2.45;100.00;98088.70;110102;1245;69699;-57
2023/10/09 01:17:35;;;;;;;3.90;1.90;;;;;;;2.37;100.00;98090.64;110156;1242;60549;-57
2023/10/09 01:20:16;;;;;;;4.60;2.30;;;;;;;2.33;100.00;98085.79;110134;1246;60495;-60
2023/10/09 01:22:50;;;;;;;3.90;2.50;;;;;;;2.28;100.00;98088.31;110182;1244;71459;-59
2023/10/09 01:25:22;;;;;;;4.10;2.20;;;;;;;2.24;100.00;98091.52;110189;1243;69129;-59
2023/10/09 01:27:53;;;;;;;2.40;1.90;;;;;;;2.19;100.00;98096.49;110133;1242;68368;-58
2023/10/09 01:30:25;;;;;;;4.00;2.70;;;;;;;2.08;100.00;98096.79;110078;1242;60513;-57
2023/10/09 01:33:00;;;;;;;4.40;2.70;;;;;;;1.97;100.00;98096.77;110165;1246;60542;-58
2023/10/09 01:35:33;;;;;;;3.30;2.30;;;;;;;1.86;100.00;98091.20;110167;1244;71699;-56
2023/10/09 01:38:12;;;;;;;3.30;1.90;;;;;;;1.80;100.00;98087.59;110179;1244;68647;-59
2023/10/09 01:40:51;;;;;;;2.90;2.00;;;;;;;1.73;100.00;98098.27;110123;1244;68360;-59
2023/10/09 01:43:27;;;;;;;3.30;2.30;;;;;;;1.68;100.00;98101.68;110177;1244;60539;-59
2023/10/09 01:46:05;;;;;;;4.00;2.80;;;;;;;1.69;100.00;98109.72;110162;1245;60496;-58
2023/10/09 01:48:39;;;;;;;6.20;2.30;;;;;;;1.67;100.00;98107.86;110215;1242;72211;-58
2023/10/09 01:51:17;;;;;;;4.10;2.00;;;;;;;1.63;100.00;98106.60;110171;1243;69158;-59
2023/10/09 01:53:56;;;;;;;5.70;2.90;;;;;;;1.57;100.00;98106.42;110189;1241;69614;-57
2023/10/09 01:56:36;;;;;;;3.30;2.00;;;;;;;1.56;100.00;98115.70;110156;1244;60691;-59
2023/10/09 01:59:11;;;;;;;5.90;3.10;;;;;;;1.56;100.00;98111.77;110146;1244;60521;-58
2023/10/09 02:01:47;;;;;;;4.20;2.90;;;;;;;1.57;100.00;98107.63;110135;1244;72115;-58
2023/10/09 02:04:22;;;;;;;4.00;2.60;;;;;;;1.55;100.00;98107.67;110148;1244;69285;-56
2023/10/09 02:06:55;;;;;;;3.40;1.80;;;;;;;1.53;100.00;98108.58;110154;1243;68526;-58
2023/10/09 02:09:30;;;;;;;4.60;2.50;;;;;;;1.54;100.00;98108.40;110110;1244;60576;-55
2023/10/09 02:12:03;;;;;;;5.10;2.70;;;;;;;1.58;100.00;98107.09;110142;1244;61014;-57
2023/10/09 02:14:41;;;;;;;3.60;2.50;;;;;;;1.62;100.00;98111.09;110134;1246;72110;-58
2023/10/09 02:17:28;;;;;;;3.80;2.30;;;;;;;1.60;100.00;98114.59;110172;1243;68613;-58
2023/10/09 02:20:16;;;;;;;4.70;2.60;;;;;;;1.54;100.00;98109.05;110161;1243;69317;-55
2023/10/09 02:22:52;;;;;;;4.40;3.00;;;;;;;1.51;100.00;98111.55;110130;1242;60522;-58
2023/10/09 02:25:34;;;;;;;4.60;2.90;;;;;;;1.48;100.00;98115.23;110181;1244;60453;-59
2023/10/09 02:28:08;;;;;;;5.60;3.30;;;;;;;1.44;100.00;98113.96;110163;1241;72266;-60
2023/10/09 02:30:48;;;;;;;5.60;2.80;;;;;;;1.37;100.00;98108.47;110108;1241;69899;-60
2023/10/09 02:33:30;;;;;;;4.20;2.40;;;;;;;1.30;100.00;98106.73;110136;1241;68908;-58
2023/10/09 02:36:05;;;;;;;3.60;2.60;;;;;;;1.23;100.00;98108.63;110122;1244;60489;-58
2023/10/09 02:38:40;;;;;;;4.50;3.20;;;;;;;1.16;100.00;98108.12;110157;1244;60500;-59
2023/10/09 02:43:47;;;;;;;7.70;3.30;;;;;;;1.01;100.00;98105.90;110156;1244;69230;-59
2023/10/09 02:46:21;;;;;;;5.60;3.10;;;;;;;0.95;100.00;98099.67;110148;1245;69132;-60
2023/10/09 02:48:50;;;;;;;4.60;2.90;;;;;;;0.95;100.00;98094.19;110126;1244;60452;-58
2023/10/09 02:57:07;;;;;;;5.30;3.20;;;;;;;0.87;100.00;98115.66;110211;1241;68601;-58
2023/10/09 02:59:44;;;;;;;4.10;2.60;;;;;;;0.80;100.00;98118.91;110107;1241;68352;-57
2023/10/09 03:02:15;;;;;;;5.00;2.80;;;;;;;0.72;100.00;98122.54;110128;1245;60547;-59
2023/10/09 03:04:49;;;;;;;4.40;2.40;;;;;;;0.64;100.00;98126.48;110176;1244;60516;-59
2023/10/09 03:07:24;;;;;;;5.80;3.60;;;;;;;0.57;100.00;98124.73;110206;1243;71287;-59
2023/10/09 03:09:57;;;;;;;4.20;2.70;;;;;;;0.57;100.00;98122.71;110212;1241;69055;-58
2023/10/09 03:12:32;;;;;;;4.00;3.00;;;;;;;0.58;100.00;98121.13;110123;1241;68688;-57
2023/10/09 03:15:08;;;;;;;5.80;2.60;;;;;;;0.59;100.00;98120.58;110142;1241;60511;-57
2023/10/09 03:17:42;;;;;;;6.00;2.30;;;;;;;0.57;100.00;98128.34;110134;1243;60504;-57
2023/10/09 03:20:17;;;;;;;3.70;2.60;;;;;;;0.51;100.00;98132.76;110125;1244;71470;-56
2023/10/09 03:22:49;;;;;;;5.90;3.10;;;;;;;0.45;100.00;98132.19;110161;1244;70166;-58
2023/10/09 03:25:24;;;;;;;3.80;2.50;;;;;;;0.42;100.00;98139.11;110099;1245;69287;-59
2023/10/09 03:27:58;;;;;;;3.00;2.30;;;;;;;0.35;100.00;98140.63;110142;1244;60606;-58
2023/10/09 03:30:32;;;;;;;4.60;2.60;;;;;;;0.29;100.00;98140.59;110146;1245;60538;-57
2023/10/09 03:33:04;;;;;;;5.60;3.50;;;;;;;0.22;100.00;98139.85;110104;1243;72787;-58
2023/10/09 03:35:36;;;;;;;4.10;2.80;;;;;;;0.17;100.00;98148.55;110157;1241;68772;-57
2023/10/09 03:38:14;;;;;;;4.00;3.20;;;;;;;0.09;100.00;98144.92;110111;1243;69296;-59
2023/10/09 03:40:48;;;;;;;4.50;2.80;;;;;;;0.02;100.00;98155.69;110111;1243;60501;-57
2023/10/09 03:43:21;;;;;;;8.10;3.00;;;;;;;-0.06;100.00;98161.30;110162;1241;60484;-58
2023/10/09 03:45:54;;;;;;;5.10;3.20;;;;;;;-0.09;100.00;98161.20;110169;1244;72423;-58
2023/10/09 03:48:31;;;;;;;4.40;2.80;;;;;;;-0.12;100.00;98153.19;110128;1241;68741;-56
2023/10/09 03:51:09;;;;;;;4.10;2.60;;;;;;;-0.14;100.00;98160.77;110134;1241;68614;-58
2023/10/09 03:53:39;;;;;;;3.90;2.70;;;;;;;-0.19;100.00;98154.86;110152;1243;60540;-58
2023/10/09 03:56:12;;;;;;;4.40;2.60;;;;;;;-0.26;100.00;98154.82;110163;1241;60486;-57
2023/10/09 03:58:44;;;;;;;5.00;2.60;;;;;;;-0.32;100.00;98163.67;110110;1241;71092;-58
2023/10/09 04:03:55;;;;;;;4.00;2.80;;;;;;;-0.46;100.00;98166.98;110117;1244;69233;-57
2023/10/09 04:06:30;;;;;;;3.10;2.30;;;;;;;-0.52;100.00;98178.55;110181;1241;60897;-56
2023/10/09 04:15:15;;;;;;;3.20;2.40;;;;;;;-0.69;100.00;98146.80;110172;1244;67382;-58
2023/10/09 04:17:42;;;;;;;3.60;2.30;;;;;;;-0.73;100.00;98151.16;110139;1244;68492;-56
2023/10/09 04:23:07;;;;;;;3.70;2.10;;;;;;;-0.82;100.00;98175.94;110171;1241;60517;-57
2023/10/09 04:25:45;;;;;;;3.80;2.60;;;;;;;-0.86;100.00;98168.30;110214;1243;70723;-60
2023/10/09 04:30:55;;;;;;;;;;;;;;;-0.88;100.00;98160.98;110137;1242;69402;-56
2023/10/09 04:38:59;;;;;;;3.70;2.40;;;;;;;-0.97;100.00;98166.24;110147;1243;71453;-57
2023/10/09 04:41:34;;;;;;;4.50;2.90;;;;;;;-0.97;100.00;98168.30;110165;1244;70138;-58
2023/10/09 04:44:22;;;;;;;5.90;2.90;;;;;;;-0.97;100.00;98183.02;110110;1244;69258;-57
2023/10/09 05:00:35;;;;;;;5.90;4.00;;;;;;;-0.81;100.00;98150.60;110123;1244;60500;-58
2023/10/09 05:08:19;;;;;;;11.00;6.20;;;;;;;-0.73;100.00;98163.67;110154;1244;69309;-57
2023/10/09 05:16:18;;;;;;;7.80;4.50;;;;;;;-0.59;100.00;98171.48;110186;1241;60500;-58
2023/10/09 05:18:56;;;;;;;7.90;4.70;;;;;;;-0.52;100.00;98183.18;110101;1245;72787;-57
2023/10/09 05:37:34;;;;;;;9.90;6.40;;;;;;;1.60;100.00;98174.89;110141;1241;69283;-58
2023/10/09 05:40:22;;;;;;;8.30;7.10;;;;;;;1.97;100.00;98178.42;110143;1244;60537;-60
2023/10/09 05:42:59;;;;;;;8.90;5.90;;;;;;;2.29;100.00;98172.59;110159;1242;60577;-60
2023/10/09 05:54:11;;;;;;;6.50;4.20;;;;;;;3.73;99.53;98189.77;110147;1243;60485;-58
2023/10/09 06:04:20;;;;;;;5.80;3.10;;;;;;;4.97;91.66;98180.55;110107;1241;67469;-60
2023/10/09 06:06:56;;;;;;;;;;;;;;;5.35;97.44;98180.59;110147;1244;60476;-60
2023/10/09 06:09:49;;;;;;;6.50;3.90;;;;;;;5.75;99.88;98191.11;110086;1243;60449;-60
2023/10/09 06:17:50;;;;;;;8.00;4.70;;;;;;;6.70;96.49;98198.52;110144;1244;70171;-61
2023/10/09 06:23:50;;;;;;;7.90;4.80;;;;;;;7.12;92.50;98205.95;110196;1244;60484;-60
2023/10/09 06:26:23;;;;;;;5.90;4.50;;;;;;;7.32;83.72;98214.89;110198;1244;72260;-60
2023/10/09 06:31:57;;;;;;;6.00;3.90;;;;;;;7.90;82.59;98223.88;110104;1244;69907;-60
2023/10/09 06:34:35;;;;;;;6.20;4.40;;;;;;;8.14;73.78;98222.39;110140;1243;60566;-60
2023/10/09 06:37:17;;;;;;;6.60;4.40;;;;;;;8.50;76.16;98220.55;110149;1241;60625;-61
2023/10/09 06:39:50;;;;;;;6.20;3.40;;;;;;;8.98;74.41;98221.36;110128;1251;72666;-61
2023/10/09 06:47:56;;;;;;;4.00;2.70;;;;;;;9.66;70.05;98226.13;110150;1244;60547;-62
2023/10/09 06:50:26;;;;;;;4.90;2.90;;;;;;;10.25;73.34;98220.88;110136;1241;60543;-60
2023/10/09 06:52:57;;;;;;;3.80;2.40;;;;;;;10.56;76.41;98231.94;110142;1244;72667;-60
2023/10/09 06:55:48;;;;;;;3.70;2.50;;;;;;;10.82;67.08;98227.55;110137;1243;68879;-60
2023/10/09 06:58:23;;;;;;;2.90;1.80;;;;;;;10.89;63.70;98219.98;110114;1244;69813;-60
2023/10/09 07:03:33;;;;;;;3.40;2.20;;;;;;;11.18;58.50;98202.69;110128;1244;60497;-60
2023/10/09 07:06:23;;;;;;;4.00;2.10;;;;;;;11.74;62.07;98200.20;110159;1241;70470;-61
2023/10/09 07:17:43;;;;;;;3.50;2.20;;;;;;;11.63;51.79;98195.63;110135;1243;60507;-60
2023/10/09 07:20:14;;;;;;;3.70;1.70;;;;;;;12.61;59.06;98194.17;110133;1244;73008;-61
2023/10/09 07:22:52;;;;;;;2.50;1.70;;;;;;;12.94;55.94;98184.04;110130;1241;69272;-61
2023/10/09 07:25:41;;;;;;;3.50;2.00;;;;;;;13.18;48.63;98193.49;110127;1241;68787;-61
2023/10/09 07:28:36;;;;;;;3.50;1.70;;;;;;;13.29;48.03;98184.73;110166;1244;60603;-61
2023/10/09 07:31:09;;;;;;;3.30;2.00;;;;;;;13.54;50.68;98189.06;110189;1244;60462;-61
2023/10/09 07:33:56;;;;;;;3.20;1.80;;;;;;;14.25;52.58;98192.80;110159;1242;71795;-59
2023/10/09 07:36:34;;;;;;;2.60;1.60;;;;;;;14.49;50.43;98193.75;110179;1244;69660;-59
2023/10/09 07:39:16;;;;;;;3.40;2.00;;;;;;;14.57;48.03;98191.04;110128;1244;69202;-60
2023/10/09 07:41:56;;;;;;;4.20;2.10;;;;;;;14.86;49.09;98188.60;110167;1243;60473;-61
2023/10/09 07:44:38;;;;;;;3.70;1.90;;;;;;;14.50;44.47;98186.46;110142;1244;60477;-59
2023/10/09 07:49:59;;;;;;;2.10;1.60;;;;;;;14.08;43.58;98181.89;110141;1244;69361;-59
2023/10/09 07:52:29;;;;;;;2.90;1.60;;;;;;;14.39;42.25;98183.11;110147;1244;68449;-61
2023/10/09 07:55:02;;;;;;;3.50;1.90;;;;;;;14.62;44.20;98168.37;110111;1243;60544;-61
2023/10/09 07:57:38;;;;;;;2.30;1.20;;;;;;;15.44;42.48;98157.16;110146;1243;60517;-60
2023/10/09 08:00:12;;;;;;;3.30;1.80;;;;;;;15.96;41.61;98152.92;110189;1241;71542;-61
2023/10/09 08:02:42;;;;;;;4.20;2.60;;;;;;;16.57;42.93;98148.02;110138;1244;69836;-61
2023/10/09 08:05:22;;;;;;;3.50;1.70;;;;;;;16.87;39.60;98145.92;110116;1241;69143;-61
2023/10/09 08:07:57;;;;;;;3.00;1.40;;;;;;;16.95;37.85;98140.27;110099;1241;60564;-61
2023/10/09 08:16:21;;;;;;;2.90;1.90;;;;;;;17.09;37.61;98129.56;110152;1245;69739;-61
2023/10/09 08:18:57;;;;;;;3.80;1.90;;;;;;;17.50;38.16;98120.99;110173;1244;70588;-62
2023/10/09 08:21:42;;;;;;;2.30;1.30;;;;;;;17.24;36.92;98126.46;110209;1244;60527;-61
2023/10/09 08:24:40;;;;;;;2.40;1.70;;;;;;;16.53;36.96;98126.48;110181;1244;60528;-60
2023/10/09 08:29:49;;;;;;;3.00;1.50;;;;;;;14.04;39.74;98121.36;110192;1244;69702;-60
2023/10/09 08:32:26;;;;;;;2.40;1.40;;;;;;;13.79;39.97;98123.66;110166;1241;69906;-59
2023/10/09 08:35:06;;;;;;;2.60;1.20;;;;;;;14.11;40.01;98122.48;110093;1243;60505;-60
2023/10/09 08:37:35;;;;;;;2.40;1.70;;;;;;;14.41;41.24;98120.17;110143;1244;60897;-61
2023/10/09 08:40:07;;;;;;;4.30;2.40;;;;;;;14.48;41.46;98125.29;110135;1242;72133;-61
2023/10/09 08:42:38;;;;;;;2.80;1.50;;;;;;;14.41;40.90;98126.70;110118;1244;68753;-61
2023/10/09 08:45:14;;;;;;;2.20;1.40;;;;;;;13.93;40.63;98122.46;110123;1241;69405;-62
2023/10/09 08:47:44;;;;;;;1.90;1.30;;;;;;;13.72;42.02;98109.43;110118;1244;60544;-60
2023/10/09 08:50:14;;;;;;;2.40;1.20;;;;;;;14.01;42.20;98104.64;110122;1243;60554;-60
2023/10/09 08:52:46;;;;;;;1.30;0.90;;;;;;;13.92;41.74;98101.31;110118;1241;72771;-61
2023/10/09 08:55:17;;;;;;;2.90;1.30;;;;;;;14.08;41.90;98100.46;110143;1243;69261;-61
2023/10/09 08:57:46;;;;;;;2.20;1.30;;;;;;;13.95;42.21;98094.41;110090;1243;69285;-60
2023/10/09 09:00:25;;;;;;;2.50;1.40;;;;;;;13.98;42.16;98085.11;110101;1241;60541;-60
2023/10/09 09:02:55;;;;;;;2.50;1.30;;;;;;;14.40;42.34;98077.83;110146;1244;60538;-61
2023/10/09 09:05:28;;;;;;;;;;;;;;;14.83;41.46;98078.64;110106;1243;72781;-62
2023/10/09 09:07:59;;;;;;;1.60;1.10;;;;;;;15.01;40.00;98082.85;109685;1241;638216;-62
2023/10/09 09:10:35;;;;;;;2.10;1.20;;;;;;;15.32;40.26;98071.56;110079;1244;69349;-60
2023/10/09 09:13:05;;;;;;;2.90;1.30;;;;;;;15.42;40.51;98066.86;110126;1243;60529;-59
2023/10/09 09:15:39;;;;;;;3.00;1.40;;;;;;;14.69;38.48;98066.05;110144;1244;60508;-60
2023/10/09 09:18:10;;;;;;;3.40;1.50;;;;;;;13.92;39.12;98057.31;110168;1244;72145;-62
2023/10/09 09:20:44;;;;;;;3.60;1.80;;;;;;;14.31;40.59;98038.33;110122;1244;69232;-60
2023/10/09 09:23:14;;;;;;;3.30;2.20;;;;;;;14.61;40.56;98034.98;110152;1241;69301;-60
2023/10/09 09:25:45;;;;;;;2.60;1.50;;;;;;;14.88;39.94;98045.80;110165;1241;60494;-60
2023/10/09 09:28:21;;;;;;;2.50;1.30;;;;;;;14.92;40.23;98043.23;110189;1244;60610;-62
2023/10/09 09:30:51;;;;;;;2.50;1.40;;;;;;;15.24;39.51;98042.85;110184;1243;71669;-61
2023/10/09 09:33:39;;;;;;;2.70;1.30;;;;;;;16.23;39.26;98037.43;110203;1244;69858;-61
2023/10/09 09:36:12;;;;;;;2.90;1.40;;;;;;;16.73;38.45;98026.39;110256;1245;69180;-60
2023/10/09 09:38:42;;;;;;;2.30;1.00;;;;;;;17.48;38.67;98044.71;110163;1242;60550;-62
2023/10/09 09:41:13;;;;;;;2.90;1.10;;;;;;;18.00;36.15;98041.00;110135;1244;60443;-60
2023/10/09 09:43:46;;;;;;;1.20;0.90;;;;;;;18.00;36.20;98031.64;110153;1243;71982;-60
2023/10/09 09:46:18;;;;;;;2.60;1.30;;;;;;;18.06;35.09;98026.67;110140;1242;69657;-62
2023/10/09 09:48:48;;;;;;;2.30;1.30;;;;;;;17.19;35.39;98021.73;110160;1243;69906;-61
2023/10/09 09:51:17;;;;;;;2.30;1.20;;;;;;;17.24;35.79;98019.48;110134;1244;60541;-60
2023/10/09 09:53:49;;;;;;;2.70;1.40;;;;;;;16.97;36.14;98015.61;110145;1242;60528;-60
2023/10/09 09:56:25;;;;;;;2.20;1.10;;;;;;;16.71;36.53;98002.06;110122;1243;72112;-59
2023/10/09 09:58:57;;;;;;;2.50;1.40;;;;;;;16.31;36.33;98000.63;110177;1241;69260;-60
2023/10/09 10:01:31;;;;;;;2.10;1.20;;;;;;;15.45;37.64;97991.47;110125;1241;69874;-60
2023/10/09 10:04:20;;;;;;;2.40;1.30;;;;;;;14.84;38.34;97995.23;110118;1241;60413;-62
2023/10/09 10:06:51;;;;;;;2.30;1.50;;;;;;;14.65;38.71;97983.23;110139;1244;60552;-60
2023/10/09 10:09:41;;;;;;;3.00;1.30;;;;;;;13.84;40.16;97969.59;110165;1244;73029;-60
2023/10/09 10:12:14;;;;;;;2.00;1.20;;;;;;;13.58;40.53;97956.56;110153;1244;69834;-60
2023/10/09 10:14:57;;;;;;;3.20;1.40;;;;;;;13.24;41.02;97962.06;110107;1241;67467;-62
2023/10/09 10:17:29;;;;;;;2.70;1.50;;;;;;;13.04;41.17;97949.02;110114;1245;60573;-60
2023/10/09 10:22:48;;;;;;;3.10;1.70;;;;;;;13.17;41.50;97944.44;110163;1242;72117;-60
2023/10/09 10:25:49;;;;;;;3.30;1.50;;;;;;;13.05;41.64;97942.48;110121;1244;68347;-61
2023/10/09 10:28:38;;;;;;;2.60;1.40;;;;;;;12.91;41.51;97948.63;110044;1248;69892;-60
2023/10/09 10:31:09;;;;;;;2.00;1.50;;;;;;;12.55;41.76;97954.19;110104;1241;60600;-60
2023/10/09 10:33:54;;;;;;;2.10;1.50;;;;;;;12.39;42.76;97952.09;110124;1243;60511;-60
2023/10/09 10:36:29;;;;;;;2.70;1.70;;;;;;;12.22;42.02;97945.23;110146;1242;71331;-60
2023/10/09 10:39:05;;;;;;;2.90;1.40;;;;;;;12.01;42.79;97941.77;110142;1243;69714;-60
2023/10/09 10:41:50;;;;;;;2.90;1.40;;;;;;;12.09;43.36;97934.42;110142;1244;69298;-60
2023/10/09 10:44:36;;;;;;;2.70;1.70;;;;;;;12.31;42.67;97935.85;110109;1243;60940;-60
2023/10/09 10:47:32;;;;;;;2.30;1.60;;;;;;;12.17;44.27;97946.65;110090;1243;60515;-60
2023/10/09 10:50:35;;;;;;;3.20;1.50;;;;;;;11.92;43.11;97955.90;110174;1243;72685;-58
2023/10/09 10:53:15;;;;;;;3.40;1.60;;;;;;;12.16;42.76;97948.79;110195;1243;69709;-62
2023/10/09 11:02:37;;;;;;;2.30;1.40;;;;;;;12.12;42.94;97919.88;110207;1244;60472;-60
2023/10/09 11:04:41;;;;;;;3.10;1.60;;;;;;;11.83;43.27;97911.81;110105;1243;72971;-62
2023/10/09 11:12:41;;;;;;;2.30;1.70;;;;;;;12.89;42.11;97918.50;110118;1241;60566;-60
2023/10/09 11:18:08;;;;;;;3.10;1.50;;;;;;;13.46;41.85;97889.35;110140;1243;72783;-60
2023/10/09 11:20:38;;;;;;;2.90;1.30;;;;;;;13.97;39.98;97891.20;110165;1244;69097;-61
2023/10/09 11:25:52;;;;;;;2.90;1.90;;;;;;;14.40;39.46;97903.68;110131;1244;60512;-61
2023/10/09 11:31:12;;;;;;;4.50;1.70;;;;;;;15.04;40.01;97892.48;110121;1243;72191;-61
2023/10/09 11:33:45;;;;;;;3.30;1.60;;;;;;;15.35;39.07;97876.59;110143;1243;69203;-61
2023/10/09 11:36:16;;;;;;;3.20;1.90;;;;;;;14.82;38.45;97885.24;110118;1244;69627;-60
2023/10/09 11:38:46;;;;;;;3.90;1.80;;;;;;;14.44;38.95;97874.45;110136;1244;60497;-60
2023/10/09 11:41:22;;;;;;;4.60;1.70;;;;;;;14.28;39.15;97869.08;110222;1241;60486;-60
2023/10/09 11:43:57;;;;;;;2.90;1.70;;;;;;;13.94;40.05;97876.19;110178;1242;72795;-62
2023/10/09 11:54:56;;;;;;;3.20;2.00;;;;;;;13.72;42.44;97874.04;109945;1244;60477;-60
2023/10/09 11:57:30;;;;;;;4.10;2.20;;;;;;;13.61;43.92;97865.58;110135;1243;72342;-60
2023/10/09 12:00:01;;;;;;;3.00;1.80;;;;;;;13.60;44.31;97860.30;110130;1241;69847;-60
2023/10/09 12:02:31;;;;;;;4.40;2.60;;;;;;;13.88;44.20;97852.64;110103;1242;68577;-60
2023/10/09 12:05:01;;;;;;;3.40;2.00;;;;;;;14.13;43.72;97841.19;110131;1243;60544;-60
2023/10/09 12:07:30;;;;;;;3.90;2.20;;;;;;;14.21;42.33;97830.41;110156;1241;60491;-60
2023/10/09 12:09:59;;;;;;;4.10;2.10;;;;;;;14.29;41.75;97818.12;110135;1243;72790;-60
2023/10/09 12:12:29;;;;;;;4.00;2.40;;;;;;;14.46;40.84;97809.23;110150;1244;69793;-60
2023/10/09 12:14:58;;;;;;;4.50;2.60;;;;;;;14.50;41.65;97811.89;110136;1241;68529;-59
2023/10/09 12:17:28;;;;;;;3.60;2.40;;;;;;;14.36;40.88;97807.07;110139;1244;60462;-60
2023/10/09 12:19:58;;;;;;;;;;;;;;;14.38;41.63;97802.88;110137;1241;60548;-60
2023/10/09 12:22:27;;;;;;;;;;;;;;;14.09;42.06;97801.36;110165;1245;72804;-59
2023/10/09 12:24:57;;;;;;;3.80;2.20;;;;;;;14.04;41.12;97801.77;110151;1243;69802;-60
2023/10/09 12:27:28;;;;;;;2.40;1.50;;;;;;;13.68;40.58;97802.35;110119;1244;70127;-60
2023/10/09 12:29:58;;;;;;;4.50;2.00;;;;;;;13.45;40.59;97795.27;110116;1242;60533;-60
2023/10/09 12:32:28;;;;;;;3.60;1.80;;;;;;;13.14;40.52;97783.98;110141;1243;60536;-60
2023/10/09 12:34:57;;;;;;;4.50;2.10;;;;;;;13.01;41.72;97778.17;110138;1241;72685;-60
2023/10/09 12:37:26;;;;;;;3.70;1.70;;;;;;;12.94;42.24;97775.91;110154;1241;69255;-60
2023/10/09 12:39:57;;;;;;;5.70;1.90;;;;;;;12.82;41.94;97763.55;110128;1243;69268;-60
2023/10/09 12:42:28;;;;;;;3.50;2.10;;;;;;;12.60;43.48;97758.02;110122;1244;60489;-60
2023/10/09 12:45:07;;;;;;;3.30;2.10;;;;;;;12.37;45.06;97752.06;110156;1244;60544;-62
2023/10/09 12:47:42;;;;;;;3.50;1.70;;;;;;;12.25;44.45;97752.26;110160;1241;72179;-60
2023/10/09 12:50:13;;;;;;;2.90;1.60;;;;;;;12.12;44.41;97751.10;110147;1243;68421;-62
2023/10/09 12:52:48;;;;;;;3.10;1.50;;;;;;;12.06;44.73;97752.10;110116;1243;69285;-59
2023/10/09 12:55:19;;;;;;;2.30;1.40;;;;;;;12.01;45.63;97755.95;110110;1241;60570;-60
2023/10/09 12:57:51;;;;;;;2.30;1.50;;;;;;;12.04;45.59;97752.27;110128;1241;60493;-60
2023/10/09 13:00:25;;;;;;;3.00;1.80;;;;;;;12.07;45.19;97746.61;110082;1243;71359;-60
2023/10/09 13:02:54;;;;;;;3.20;1.80;;;;;;;12.06;45.58;97739.89;110158;1243;68740;-60
2023/10/09 13:05:26;;;;;;;2.20;1.40;;;;;;;12.01;44.93;97726.41;110089;1243;69867;-60
2023/10/09 13:07:56;;;;;;;3.50;1.80;;;;;;;11.90;46.43;97725.67;110136;1243;60551;-60
2023/10/09 13:10:25;;;;;;;3.80;1.60;;;;;;;11.90;46.25;97723.54;110157;1243;60560;-60
2023/10/09 13:12:57;;;;;;;1.60;1.10;;;;;;;11.90;46.21;97724.94;110153;1244;72787;-60
2023/10/09 13:15:27;;;;;;;2.40;1.30;;;;;;;11.94;45.06;97711.20;110104;1243;69307;-60
2023/10/09 13:17:57;;;;;;;3.70;2.10;;;;;;;11.92;45.35;97708.89;110088;1243;69285;-61
2023/10/09 13:20:27;;;;;;;3.30;1.60;;;;;;;11.90;46.15;97701.76;110110;1243;60477;-62
2023/10/09 13:22:57;;;;;;;1.90;1.40;;;;;;;11.80;47.28;97704.05;110149;1241;60489;-60
2023/10/09 13:25:32;;;;;;;;;;;;;;;11.70;47.17;97703.49;110192;1242;71475;-60
2023/10/09 13:28:04;;;;;;;2.60;1.50;;;;;;;11.55;46.18;97700.20;110137;1241;69357;-62
2023/10/09 13:30:39;;;;;;;3.90;1.80;;;;;;;11.45;47.10;97701.67;110095;1244;68535;-62
2023/10/09 13:33:16;;;;;;;2.30;1.60;;;;;;;11.35;47.78;97689.81;110179;1244;60477;-62
2023/10/09 13:35:50;;;;;;;2.60;1.80;;;;;;;11.17;48.26;97680.45;110149;1244;60551;-61
2023/10/09 13:38:19;;;;;;;2.60;1.60;;;;;;;11.07;48.30;97679.62;110169;1242;72203;-62
2023/10/09 13:41:01;;;;;;;3.50;1.50;;;;;;;10.95;48.98;97678.66;110190;1242;69254;-62
2023/10/09 13:43:30;;;;;;;3.40;1.80;;;;;;;10.88;49.14;97672.77;110136;1243;69472;-59
2023/10/09 13:46:03;;;;;;;3.10;1.80;;;;;;;10.80;50.26;97673.84;110160;1243;60505;-60
2023/10/09 13:48:37;;;;;;;3.20;1.70;;;;;;;10.74;50.99;97664.95;110152;1243;60488;-62
2023/10/09 13:51:13;;;;;;;2.30;1.60;;;;;;;10.69;50.93;97662.36;110183;1244;72782;-60
2023/10/09 13:53:47;;;;;;;2.80;1.60;;;;;;;10.68;50.71;97654.91;110175;1243;70296;-61
2023/10/09 13:56:19;;;;;;;3.30;2.00;;;;;;;10.65;51.00;97652.54;110156;1244;69240;-60
2023/10/09 13:58:51;;;;;;;4.10;1.50;;;;;;;10.59;51.00;97654.32;110101;1241;60548;-62
2023/10/09 14:01:27;;;;;;;2.70;1.20;;;;;;;10.57;50.76;97659.70;110157;1244;61013;-61
2023/10/09 14:03:59;;;;;;;2.00;1.40;;;;;;;10.51;50.35;97651.93;110103;1243;72792;-61
2023/10/09 14:06:31;;;;;;;4.40;1.80;;;;;;;10.46;50.44;97647.73;110157;1244;69315;-62
2023/10/09 14:09:05;;;;;;;3.50;1.60;;;;;;;10.36;50.94;97635.18;110081;1243;69182;-61
2023/10/09 14:11:37;;;;;;;5.00;2.40;;;;;;;10.30;52.20;97622.04;110111;1242;60478;-60
2023/10/09 14:14:09;;;;;;;13.70;5.90;;;;;;;10.26;51.92;97629.77;110131;1243;60501;-61
2023/10/09 14:16:42;;;;;;;13.30;4.50;;;;;;;10.23;51.78;97621.60;110131;1243;72188;-62
2023/10/09 14:19:13;;;;;;;6.20;3.10;;;;;;;10.20;52.00;97612.58;110126;1241;68833;-60
2023/10/09 14:21:43;;;;;;;5.10;2.10;;;;;;;10.15;51.72;97614.10;110113;1244;69310;-62
2023/10/09 14:24:15;;;;;;;4.60;2.20;;;;;;;10.11;52.30;97619.78;110139;1242;60510;-63
2023/10/09 14:26:51;;;;;;;3.30;2.20;;;;;;;10.04;52.69;97620.25;110206;1243;60474;-61
2023/10/09 14:29:21;;;;;;;3.20;2.00;;;;;;;9.97;53.86;97610.83;110169;1243;73156;-60
2023/10/09 14:32:00;;;;;;;3.00;2.00;;;;;;;9.92;55.30;97612.67;110146;1243;68261;-61
2023/10/09 14:34:32;;;;;;;3.90;1.80;;;;;;;9.90;56.68;97609.04;110127;1241;69906;-61
2023/10/09 14:37:03;;;;;;;2.40;1.50;;;;;;;9.87;56.32;97598.27;110164;1244;60548;-61
2023/10/09 14:39:36;;;;;;;2.00;1.50;;;;;;;9.87;54.80;97600.20;110149;1244;60450;-61
2023/10/09 14:42:09;;;;;;;3.90;1.80;;;;;;;9.86;55.40;97603.55;110205;1241;72192;-61